createdAt,value
2018-09-15T00:00:01.955Z,1021.39
2018-09-15T00:01:01.881Z,1021.43
2018-09-15T00:02:01.931Z,1021.4
2018-09-15T00:03:01.891Z,1021.39
2018-09-15T00:04:02.083Z,1021.42
2018-09-15T00:05:01.828Z,1021.47
2018-09-15T00:06:01.735Z,1021.48
2018-09-15T00:07:01.805Z,1021.45
2018-09-15T00:08:02.090Z,1021.46
2018-09-15T00:09:02.054Z,1021.49
2018-09-15T00:10:01.963Z,1021.49
2018-09-15T00:11:01.945Z,1021.48
2018-09-15T00:12:01.902Z,1021.52
2018-09-15T00:13:03.606Z,1021.54
2018-09-15T00:14:02.119Z,1021.55
2018-09-15T00:15:02.006Z,1021.53
2018-09-15T00:16:04.450Z,1021.56
2018-09-15T00:17:04.523Z,1021.61
2018-09-15T00:18:04.283Z,1021.63
2018-09-15T00:19:02.358Z,1021.61
2018-09-15T00:20:02.524Z,1021.63
2018-09-15T00:21:03.817Z,1021.6
2018-09-15T00:22:04.040Z,1021.61
2018-09-15T00:23:02.278Z,1021.6
2018-09-15T00:24:04.835Z,1021.6
2018-09-15T00:25:02.155Z,1021.64
2018-09-15T00:26:04.373Z,1021.63
2018-09-15T00:27:01.632Z,1021.64
2018-09-15T00:28:04.503Z,1021.64
2018-09-15T00:29:01.639Z,1021.61
2018-09-15T00:30:04.458Z,1021.66
2018-09-15T00:31:02.021Z,1021.68
2018-09-15T00:32:02.157Z,1021.67
2018-09-15T00:33:02.348Z,1021.6
2018-09-15T00:34:02.045Z,1021.67
2018-09-15T00:35:02.378Z,1021.67
2018-09-15T00:36:02.136Z,1021.68
2018-09-15T00:37:04.557Z,1021.61
2018-09-15T00:38:04.573Z,1021.6
2018-09-15T00:39:04.961Z,1021.66
2018-09-15T00:40:02.030Z,1021.64
2018-09-15T00:41:02.750Z,1021.62
2018-09-15T00:42:04.236Z,1021.65
2018-09-15T00:43:04.274Z,1021.67
2018-09-15T00:44:02.026Z,1021.68
2018-09-15T00:45:02.762Z,1021.65
2018-09-15T00:46:04.624Z,1021.66
2018-09-15T00:47:02.059Z,1021.61
2018-09-15T00:48:02.342Z,1021.62
2018-09-15T00:49:04.476Z,1021.59
2018-09-15T00:50:04.652Z,1021.58
2018-09-15T00:51:02.375Z,1021.53
2018-09-15T00:52:03.803Z,1021.58
2018-09-15T00:53:02.360Z,1021.58
2018-09-15T00:54:04.610Z,1021.63
2018-09-15T00:55:02.785Z,1021.6
2018-09-15T00:56:04.403Z,1021.64
2018-09-15T00:57:04.550Z,1021.67
2018-09-15T00:58:04.348Z,1021.68
2018-09-15T00:59:02.393Z,1021.71
2018-09-15T01:00:02.066Z,1021.72
2018-09-15T01:01:04.401Z,1021.75
2018-09-15T01:02:04.581Z,1021.76
2018-09-15T01:03:01.704Z,1021.78
2018-09-15T01:04:04.657Z,1021.79
2018-09-15T01:05:01.726Z,1021.77
2018-09-15T01:06:04.587Z,1021.76
2018-09-15T01:07:02.746Z,1021.74
2018-09-15T01:08:03.784Z,1021.75
2018-09-15T01:09:04.332Z,1021.79
2018-09-15T01:10:04.476Z,1021.78
2018-09-15T01:11:02.398Z,1021.82
2018-09-15T01:12:02.083Z,1021.81
2018-09-15T01:13:04.425Z,1021.82
2018-09-15T01:14:02.395Z,1021.85
2018-09-15T01:15:02.587Z,1021.83
2018-09-15T01:16:01.915Z,1021.9
2018-09-15T01:17:01.900Z,1021.85
2018-09-15T01:18:02.325Z,1021.84
2018-09-15T01:19:01.749Z,1021.81
2018-09-15T01:20:02.204Z,1021.82
2018-09-15T01:21:01.776Z,1021.8
2018-09-15T01:22:02.108Z,1021.81
2018-09-15T01:23:01.654Z,1021.83
2018-09-15T01:24:02.058Z,1021.79
2018-09-15T01:25:01.929Z,1021.86
2018-09-15T01:26:02.303Z,1021.85
2018-09-15T01:27:01.785Z,1021.87
2018-09-15T01:28:01.868Z,1021.85
2018-09-15T01:29:01.771Z,1021.87
2018-09-15T01:30:01.985Z,1021.94
2018-09-15T01:31:01.844Z,1021.93
2018-09-15T01:32:01.773Z,1021.91
2018-09-15T01:33:01.878Z,1021.96
2018-09-15T01:34:01.933Z,1021.95
2018-09-15T01:35:01.833Z,1021.92
2018-09-15T01:36:01.947Z,1021.93
2018-09-15T01:37:02.154Z,1021.92
2018-09-15T01:38:01.732Z,1021.93
2018-09-15T01:39:01.699Z,1021.95
2018-09-15T01:40:01.958Z,1021.94
2018-09-15T01:41:01.684Z,1021.97
2018-09-15T01:42:02.227Z,1021.95
2018-09-15T01:43:01.853Z,1021.98
2018-09-15T01:44:01.903Z,1021.99
2018-09-15T01:45:01.697Z,1021.97
2018-09-15T01:46:01.841Z,1021.95
2018-09-15T01:47:01.695Z,1021.98
2018-09-15T01:48:02.094Z,1021.99
2018-09-15T01:49:01.775Z,1021.93
2018-09-15T01:50:01.839Z,1021.95
2018-09-15T01:51:01.839Z,1021.94
2018-09-15T01:52:01.918Z,1021.92
2018-09-15T01:53:01.700Z,1021.92
2018-09-15T01:54:01.947Z,1021.93
2018-09-15T01:55:02.053Z,1021.95
2018-09-15T01:56:01.989Z,1021.96
2018-09-15T01:57:01.708Z,1021.96
2018-09-15T01:58:01.829Z,1022
2018-09-15T01:59:01.994Z,1022.01
2018-09-15T02:00:01.965Z,1021.98
2018-09-15T02:01:02.145Z,1021.98
2018-09-15T02:02:01.907Z,1022.04
2018-09-15T02:03:01.859Z,1022.03
2018-09-15T02:04:01.774Z,1022.01
2018-09-15T02:05:01.798Z,1022.04
2018-09-15T02:06:01.884Z,1022.07
2018-09-15T02:07:01.769Z,1022.07
2018-09-15T02:08:02.017Z,1022.05
2018-09-15T02:09:01.818Z,1021.99
2018-09-15T02:10:01.885Z,1022.01
2018-09-15T02:11:01.631Z,1022.04
2018-09-15T02:12:01.781Z,1022.03
2018-09-15T02:13:01.748Z,1022.06
2018-09-15T02:14:01.915Z,1021.99
2018-09-15T02:15:01.837Z,1021.98
2018-09-15T02:16:01.829Z,1022.02
2018-09-15T02:17:01.667Z,1022.02
2018-09-15T02:18:01.789Z,1022.06
2018-09-15T02:19:02.675Z,1022.03
2018-09-15T02:20:01.815Z,1022
2018-09-15T02:21:01.643Z,1022.06
2018-09-15T02:22:02.128Z,1022.07
2018-09-15T02:23:02.128Z,1022.08
2018-09-15T02:24:01.809Z,1022.1
2018-09-15T02:25:01.756Z,1022.09
2018-09-15T02:26:01.876Z,1022.12
2018-09-15T02:27:01.740Z,1022.16
2018-09-15T02:28:01.808Z,1022.22
2018-09-15T02:29:01.796Z,1022.25
2018-09-15T02:30:01.941Z,1022.29
2018-09-15T02:31:01.692Z,1022.26
2018-09-15T02:32:01.765Z,1022.33
2018-09-15T02:33:01.735Z,1022.36
2018-09-15T02:34:01.884Z,1022.36
2018-09-15T02:35:01.967Z,1022.32
2018-09-15T02:36:02.076Z,1022.41
2018-09-15T02:37:02.166Z,1022.43
2018-09-15T02:38:02.270Z,1022.41
2018-09-15T02:39:01.825Z,1022.42
2018-09-15T02:40:01.913Z,1022.4
2018-09-15T02:41:01.666Z,1022.4
2018-09-15T02:42:01.849Z,1022.4
2018-09-15T02:43:01.964Z,1022.41
2018-09-15T02:44:02.255Z,1022.42
2018-09-15T02:45:02.268Z,1022.4
2018-09-15T02:46:01.894Z,1022.4
2018-09-15T02:47:01.873Z,1022.35
2018-09-15T02:48:02.105Z,1022.41
2018-09-15T02:49:02.116Z,1022.46
2018-09-15T02:50:01.927Z,1022.43
2018-09-15T02:51:01.753Z,1022.45
2018-09-15T02:52:02.274Z,1022.42
2018-09-15T02:53:02.035Z,1022.41
2018-09-15T02:54:01.957Z,1022.43
2018-09-15T02:55:01.830Z,1022.4
2018-09-15T02:56:02.162Z,1022.44
2018-09-15T02:57:01.908Z,1022.46
2018-09-15T02:58:02.137Z,1022.4
2018-09-15T02:59:01.648Z,1022.43
2018-09-15T03:00:02.011Z,1022.45
2018-09-15T03:01:01.860Z,1022.45
2018-09-15T03:02:02.231Z,1022.45
2018-09-15T03:03:02.083Z,1022.54
2018-09-15T03:04:01.935Z,1022.49
2018-09-15T03:05:02.204Z,1022.49
2018-09-15T03:06:02.196Z,1022.54
2018-09-15T03:07:01.805Z,1022.54
2018-09-15T03:08:01.936Z,1022.51
2018-09-15T03:09:01.870Z,1022.54
2018-09-15T03:10:02.379Z,1022.55
2018-09-15T03:11:01.791Z,1022.59
2018-09-15T03:12:02.089Z,1022.56
2018-09-15T03:13:02.095Z,1022.61
2018-09-15T03:14:02.315Z,1022.62
2018-09-15T03:15:02.004Z,1022.65
2018-09-15T03:16:01.684Z,1022.66
2018-09-15T03:17:02.241Z,1022.63
2018-09-15T03:18:02.047Z,1022.61
2018-09-15T03:19:01.663Z,1022.64
2018-09-15T03:20:01.867Z,1022.63
2018-09-15T03:21:01.727Z,1022.64
2018-09-15T03:22:01.822Z,1022.62
2018-09-15T03:23:02.186Z,1022.67
2018-09-15T03:24:01.847Z,1022.66
2018-09-15T03:25:02.230Z,1022.7
2018-09-15T03:26:01.918Z,1022.72
2018-09-15T03:27:01.720Z,1022.7
2018-09-15T03:28:01.924Z,1022.69
2018-09-15T03:29:01.650Z,1022.64
2018-09-15T03:30:01.743Z,1022.7
2018-09-15T03:31:02.155Z,1022.65
2018-09-15T03:32:01.742Z,1022.66
2018-09-15T03:33:01.859Z,1022.69
2018-09-15T03:34:01.847Z,1022.68
2018-09-15T03:35:01.655Z,1022.69
2018-09-15T03:36:01.741Z,1022.76
2018-09-15T03:37:01.861Z,1022.69
2018-09-15T03:38:01.876Z,1022.7
2018-09-15T03:39:01.721Z,1022.77
2018-09-15T03:40:01.877Z,1022.8
2018-09-15T03:41:01.731Z,1022.77
2018-09-15T03:42:02.551Z,1022.75
2018-09-15T03:43:02.016Z,1022.73
2018-09-15T03:44:02.090Z,1022.72
2018-09-15T03:45:02.052Z,1022.76
2018-09-15T03:46:02.220Z,1022.78
2018-09-15T03:47:01.994Z,1022.75
2018-09-15T03:48:02.196Z,1022.75
2018-09-15T03:49:01.764Z,1022.82
2018-09-15T03:50:01.931Z,1022.75
2018-09-15T03:51:02.142Z,1022.74
2018-09-15T03:52:01.836Z,1022.79
2018-09-15T03:53:01.831Z,1022.81
2018-09-15T03:54:01.786Z,1022.82
2018-09-15T03:55:01.786Z,1022.79
2018-09-15T03:56:01.978Z,1022.77
2018-09-15T03:57:01.962Z,1022.82
2018-09-15T03:58:02.033Z,1022.79
2018-09-15T03:59:01.856Z,1022.77
2018-09-15T04:00:02.142Z,1022.8
2018-09-15T04:01:01.896Z,1022.86
2018-09-15T04:02:01.744Z,1022.86
2018-09-15T04:03:02.355Z,1022.85
2018-09-15T04:04:01.871Z,1022.86
2018-09-15T04:05:01.877Z,1022.89
2018-09-15T04:06:01.975Z,1022.92
2018-09-15T04:07:01.756Z,1022.93
2018-09-15T04:08:01.960Z,1022.94
2018-09-15T04:09:02.028Z,1022.95
2018-09-15T04:10:01.763Z,1022.97
2018-09-15T04:11:01.552Z,1022.93
2018-09-15T04:12:01.687Z,1023.02
2018-09-15T04:13:01.784Z,1023.02
2018-09-15T04:14:01.831Z,1022.98
2018-09-15T04:15:01.846Z,1022.99
2018-09-15T04:16:01.962Z,1023.02
2018-09-15T04:17:01.960Z,1023.03
2018-09-15T04:18:01.950Z,1023.09
2018-09-15T04:19:02.501Z,1023.06
2018-09-15T04:20:01.899Z,1023.14
2018-09-15T04:21:01.697Z,1023.11
2018-09-15T04:22:01.714Z,1023.19
2018-09-15T04:23:01.863Z,1023.15
2018-09-15T04:24:01.908Z,1023.18
2018-09-15T04:25:02.187Z,1023.18
2018-09-15T04:26:01.852Z,1023.2
2018-09-15T04:27:01.665Z,1023.18
2018-09-15T04:28:01.830Z,1023.18
2018-09-15T04:29:01.984Z,1023.19
2018-09-15T04:30:02.047Z,1023.24
2018-09-15T04:31:01.873Z,1023.2
2018-09-15T04:32:02.139Z,1023.3
2018-09-15T04:33:02.046Z,1023.27
2018-09-15T04:34:01.842Z,1023.23
2018-09-15T04:35:01.828Z,1023.27
2018-09-15T04:36:01.972Z,1023.26
2018-09-15T04:37:01.829Z,1023.25
2018-09-15T04:38:02.145Z,1023.25
2018-09-15T04:39:02.176Z,1023.29
2018-09-15T04:40:01.879Z,1023.29
2018-09-15T04:41:01.831Z,1023.34
2018-09-15T04:42:01.971Z,1023.34
2018-09-15T04:43:01.740Z,1023.36
2018-09-15T04:44:01.895Z,1023.35
2018-09-15T04:45:01.871Z,1023.33
2018-09-15T04:46:01.902Z,1023.37
2018-09-15T04:47:01.756Z,1023.33
2018-09-15T04:48:01.726Z,1023.28
2018-09-15T04:49:01.883Z,1023.37
2018-09-15T04:50:01.869Z,1023.38
2018-09-15T04:51:01.903Z,1023.36
2018-09-15T04:52:01.825Z,1023.4
2018-09-15T04:53:01.823Z,1023.37
2018-09-15T04:54:01.748Z,1023.37
2018-09-15T04:55:01.790Z,1023.41
2018-09-15T04:56:01.888Z,1023.44
2018-09-15T04:57:01.830Z,1023.43
2018-09-15T04:58:01.902Z,1023.48
2018-09-15T04:59:01.896Z,1023.46
2018-09-15T05:00:01.998Z,1023.53
2018-09-15T05:01:01.996Z,1023.53
2018-09-15T05:02:01.870Z,1023.54
2018-09-15T05:03:01.826Z,1023.51
2018-09-15T05:04:01.726Z,1023.55
2018-09-15T05:05:02.198Z,1023.56
2018-09-15T05:06:01.871Z,1023.58
2018-09-15T05:07:01.801Z,1023.52
2018-09-15T05:08:02.083Z,1023.6
2018-09-15T05:09:01.781Z,1023.59
2018-09-15T05:10:01.872Z,1023.61
2018-09-15T05:11:01.706Z,1023.61
2018-09-15T05:12:01.972Z,1023.6
2018-09-15T05:13:02.236Z,1023.64
2018-09-15T05:14:01.792Z,1023.61
2018-09-15T05:15:01.827Z,1023.64
2018-09-15T05:16:01.772Z,1023.65
2018-09-15T05:17:01.744Z,1023.7
2018-09-15T05:18:02.073Z,1023.68
2018-09-15T05:19:01.667Z,1023.68
2018-09-15T05:20:02.285Z,1023.72
2018-09-15T05:21:02.000Z,1023.65
2018-09-15T05:22:01.811Z,1023.66
2018-09-15T05:23:01.727Z,1023.66
2018-09-15T05:24:01.741Z,1023.66
2018-09-15T05:25:02.117Z,1023.69
2018-09-15T05:26:01.844Z,1023.72
2018-09-15T05:27:02.098Z,1023.7
2018-09-15T05:28:01.717Z,1023.68
2018-09-15T05:29:01.824Z,1023.69
2018-09-15T05:30:02.138Z,1023.67
2018-09-15T05:31:02.102Z,1023.64
2018-09-15T05:32:01.859Z,1023.7
2018-09-15T05:33:01.808Z,1023.67
2018-09-15T05:34:01.841Z,1023.71
2018-09-15T05:35:01.849Z,1023.71
2018-09-15T05:36:02.073Z,1023.75
2018-09-15T05:37:02.111Z,1023.76
2018-09-15T05:38:01.747Z,1023.79
2018-09-15T05:39:01.854Z,1023.74
2018-09-15T05:40:02.598Z,1023.72
2018-09-15T05:41:01.760Z,1023.81
2018-09-15T05:42:01.849Z,1023.76
2018-09-15T05:43:01.717Z,1023.78
2018-09-15T05:44:01.732Z,1023.77
2018-09-15T05:45:01.740Z,1023.77
2018-09-15T05:46:01.954Z,1023.78
2018-09-15T05:47:01.763Z,1023.77
2018-09-15T05:48:01.782Z,1023.78
2018-09-15T05:49:02.113Z,1023.84
2018-09-15T05:50:01.855Z,1023.85
2018-09-15T05:51:01.804Z,1023.85
2018-09-15T05:52:02.035Z,1023.91
2018-09-15T05:53:01.952Z,1023.9
2018-09-15T05:54:01.884Z,1023.88
2018-09-15T05:55:01.834Z,1023.91
2018-09-15T05:56:01.943Z,1023.94
2018-09-15T05:57:02.110Z,1023.92
2018-09-15T05:58:01.937Z,1023.95
2018-09-15T05:59:01.674Z,1023.96
2018-09-15T06:00:01.877Z,1023.97
2018-09-15T06:01:01.703Z,1023.95
2018-09-15T06:02:01.911Z,1023.96
2018-09-15T06:03:02.026Z,1024
2018-09-15T06:04:01.875Z,1024.01
2018-09-15T06:05:01.690Z,1024.01
2018-09-15T06:06:02.079Z,1024.09
2018-09-15T06:07:01.910Z,1024.03
2018-09-15T06:08:01.825Z,1024.05
2018-09-15T06:09:01.796Z,1024.09
2018-09-15T06:10:01.802Z,1024.09
2018-09-15T06:11:02.191Z,1024.15
2018-09-15T06:12:01.961Z,1024.14
2018-09-15T06:13:01.917Z,1024.19
2018-09-15T06:14:02.016Z,1024.15
2018-09-15T06:15:01.796Z,1024.15
2018-09-15T06:16:01.672Z,1024.16
2018-09-15T06:17:01.755Z,1024.22
2018-09-15T06:18:01.835Z,1024.21
2018-09-15T06:19:02.118Z,1024.22
2018-09-15T06:20:01.930Z,1024.23
2018-09-15T06:21:01.919Z,1024.24
2018-09-15T06:22:01.815Z,1024.29
2018-09-15T06:23:01.891Z,1024.25
2018-09-15T06:24:01.752Z,1024.29
2018-09-15T06:25:01.755Z,1024.3
2018-09-15T06:26:01.778Z,1024.32
2018-09-15T06:27:01.867Z,1024.35
2018-09-15T06:28:01.729Z,1024.33
2018-09-15T06:29:01.705Z,1024.37
2018-09-15T06:30:02.101Z,1024.37
2018-09-15T06:31:02.110Z,1024.41
2018-09-15T06:32:02.001Z,1024.37
2018-09-15T06:33:02.158Z,1024.42
2018-09-15T06:34:01.814Z,1024.4
2018-09-15T06:35:02.384Z,1024.45
2018-09-15T06:36:01.881Z,1024.46
2018-09-15T06:37:01.975Z,1024.46
2018-09-15T06:38:01.636Z,1024.47
2018-09-15T06:39:01.839Z,1024.49
2018-09-15T06:40:01.865Z,1024.47
2018-09-15T06:41:01.643Z,1024.48
2018-09-15T06:42:01.875Z,1024.48
2018-09-15T06:43:01.888Z,1024.47
2018-09-15T06:44:01.716Z,1024.47
2018-09-15T06:45:02.105Z,1024.47
2018-09-15T06:46:01.924Z,1024.48
2018-09-15T06:47:01.765Z,1024.48
2018-09-15T06:48:01.805Z,1024.45
2018-09-15T06:49:01.902Z,1024.45
2018-09-15T06:50:01.744Z,1024.48
2018-09-15T06:51:01.728Z,1024.46
2018-09-15T06:52:01.893Z,1024.41
2018-09-15T06:53:01.827Z,1024.47
2018-09-15T06:54:01.763Z,1024.48
2018-09-15T06:55:01.811Z,1024.48
2018-09-15T06:56:01.607Z,1024.5
2018-09-15T06:57:01.892Z,1024.53
2018-09-15T06:58:01.730Z,1024.55
2018-09-15T06:59:01.918Z,1024.54
2018-09-15T07:00:01.875Z,1024.58
2018-09-15T07:01:01.967Z,1024.56
2018-09-15T07:02:01.731Z,1024.53
2018-09-15T07:03:01.830Z,1024.54
2018-09-15T07:04:01.710Z,1024.52
2018-09-15T07:05:01.735Z,1024.61
2018-09-15T07:06:01.833Z,1024.58
2018-09-15T07:07:01.911Z,1024.59
2018-09-15T07:08:01.771Z,1024.6
2018-09-15T07:09:01.845Z,1024.59
2018-09-15T07:10:01.934Z,1024.62
2018-09-15T07:11:01.728Z,1024.63
2018-09-15T07:12:01.749Z,1024.67
2018-09-15T07:13:02.147Z,1024.67
2018-09-15T07:14:02.034Z,1024.66
2018-09-15T07:15:01.872Z,1024.66
2018-09-15T07:16:01.950Z,1024.65
2018-09-15T07:17:02.136Z,1024.65
2018-09-15T07:18:01.979Z,1024.67
2018-09-15T07:19:01.733Z,1024.66
2018-09-15T07:20:02.004Z,1024.64
2018-09-15T07:21:01.804Z,1024.64
2018-09-15T07:22:01.815Z,1024.62
2018-09-15T07:23:02.037Z,1024.63
2018-09-15T07:24:01.809Z,1024.66
2018-09-15T07:25:01.838Z,1024.61
2018-09-15T07:26:02.307Z,1024.67
2018-09-15T07:27:01.772Z,1024.67
2018-09-15T07:28:01.852Z,1024.71
2018-09-15T07:29:02.044Z,1024.7
2018-09-15T07:30:01.881Z,1024.7
2018-09-15T07:31:01.798Z,1024.72
2018-09-15T07:32:01.983Z,1024.75
2018-09-15T07:33:01.752Z,1024.73
2018-09-15T07:34:01.750Z,1024.74
2018-09-15T07:35:01.722Z,1024.75
2018-09-15T07:36:01.832Z,1024.73
2018-09-15T07:37:01.609Z,1024.72
2018-09-15T07:38:01.976Z,1024.75
2018-09-15T07:39:02.099Z,1024.75
2018-09-15T07:40:01.899Z,1024.73
2018-09-15T07:41:01.782Z,1024.77
2018-09-15T07:42:01.766Z,1024.73
2018-09-15T07:43:01.808Z,1024.79
2018-09-15T07:44:02.093Z,1024.75
2018-09-15T07:45:02.008Z,1024.73
2018-09-15T07:46:01.945Z,1024.76
2018-09-15T07:47:02.044Z,1024.75
2018-09-15T07:48:01.759Z,1024.79
2018-09-15T07:49:01.954Z,1024.78
2018-09-15T07:50:01.619Z,1024.77
2018-09-15T07:51:01.805Z,1024.77
2018-09-15T07:52:01.914Z,1024.83
2018-09-15T07:53:01.973Z,1024.86
2018-09-15T07:54:01.752Z,1024.85
2018-09-15T07:55:01.797Z,1024.86
2018-09-15T07:56:01.802Z,1024.86
2018-09-15T07:57:01.965Z,1024.87
2018-09-15T07:58:02.831Z,1024.85
2018-09-15T07:59:01.718Z,1024.87
2018-09-15T08:00:01.770Z,1024.93
2018-09-15T08:01:01.779Z,1024.85
2018-09-15T08:02:02.039Z,1024.85
2018-09-15T08:03:01.668Z,1024.88
2018-09-15T08:04:01.729Z,1024.87
2018-09-15T08:05:01.824Z,1024.92
2018-09-15T08:06:01.878Z,1024.91
2018-09-15T08:07:01.653Z,1024.95
2018-09-15T08:08:01.812Z,1024.94
2018-09-15T08:09:01.758Z,1024.97
2018-09-15T08:10:01.912Z,1025
2018-09-15T08:11:01.978Z,1024.97
2018-09-15T08:12:01.894Z,1024.99
2018-09-15T08:13:02.027Z,1024.99
2018-09-15T08:14:01.765Z,1024.98
2018-09-15T08:15:01.778Z,1025.03
2018-09-15T08:16:01.866Z,1025.04
2018-09-15T08:17:01.888Z,1025.04
2018-09-15T08:18:01.709Z,1025.05
2018-09-15T08:19:01.929Z,1025.09
2018-09-15T08:20:01.833Z,1025.06
2018-09-15T08:21:01.659Z,1025.07
2018-09-15T08:22:01.920Z,1025.05
2018-09-15T08:23:01.847Z,1025.02
2018-09-15T08:24:01.823Z,1025.05
2018-09-15T08:25:01.784Z,1025.06
2018-09-15T08:26:02.036Z,1025
2018-09-15T08:27:01.738Z,1025.02
2018-09-15T08:28:01.960Z,1025.01
2018-09-15T08:29:01.711Z,1025.04
2018-09-15T08:30:01.849Z,1024.99
2018-09-15T08:31:01.823Z,1025.04
2018-09-15T08:32:02.104Z,1025.06
2018-09-15T08:33:01.727Z,1025.11
2018-09-15T08:34:01.805Z,1025.1
2018-09-15T08:35:02.164Z,1025.14
2018-09-15T08:36:02.039Z,1025.07
2018-09-15T08:37:01.777Z,1025.11
2018-09-15T08:38:01.742Z,1025.14
2018-09-15T08:39:01.860Z,1025.18
2018-09-15T08:40:02.142Z,1025.14
2018-09-15T08:41:01.890Z,1025.14
2018-09-15T08:42:01.682Z,1025.17
2018-09-15T08:43:01.912Z,1025.16
2018-09-15T08:44:01.649Z,1025.15
2018-09-15T08:45:01.952Z,1025.18
2018-09-15T08:46:01.760Z,1025.21
2018-09-15T08:47:02.019Z,1025.15
2018-09-15T08:48:01.861Z,1025.2
2018-09-15T08:49:01.826Z,1025.15
2018-09-15T08:50:01.847Z,1025.19
2018-09-15T08:51:01.976Z,1025.21
2018-09-15T08:52:01.727Z,1025.21
2018-09-15T08:53:01.877Z,1025.24
2018-09-15T08:54:02.214Z,1025.26
2018-09-15T08:55:02.049Z,1025.29
2018-09-15T08:56:02.031Z,1025.28
2018-09-15T08:57:01.753Z,1025.26
2018-09-15T08:58:01.702Z,1025.25
2018-09-15T08:59:01.939Z,1025.29
2018-09-15T09:00:01.751Z,1025.24
2018-09-15T09:01:01.913Z,1025.26
2018-09-15T09:02:01.881Z,1025.22
2018-09-15T09:03:01.896Z,1025.22
2018-09-15T09:04:01.853Z,1025.2
2018-09-15T09:05:01.774Z,1025.18
2018-09-15T09:06:02.184Z,1025.19
2018-09-15T09:07:01.759Z,1025.15
2018-09-15T09:08:01.794Z,1025.26
2018-09-15T09:09:01.843Z,1025.25
2018-09-15T09:10:01.801Z,1025.2
2018-09-15T09:11:02.237Z,1025.21
2018-09-15T09:12:01.636Z,1025.25
2018-09-15T09:13:01.720Z,1025.26
2018-09-15T09:14:01.797Z,1025.25
2018-09-15T09:15:01.898Z,1025.29
2018-09-15T09:16:01.848Z,1025.3
2018-09-15T09:17:01.827Z,1025.26
2018-09-15T09:18:01.902Z,1025.28
2018-09-15T09:19:01.900Z,1025.35
2018-09-15T09:20:02.328Z,1025.33
2018-09-15T09:21:01.756Z,1025.3
2018-09-15T09:22:01.861Z,1025.33
2018-09-15T09:23:01.784Z,1025.31
2018-09-15T09:24:01.634Z,1025.31
2018-09-15T09:25:01.800Z,1025.29
2018-09-15T09:26:01.993Z,1025.26
2018-09-15T09:27:01.672Z,1025.24
2018-09-15T09:28:01.765Z,1025.27
2018-09-15T09:29:01.755Z,1025.31
2018-09-15T09:30:01.817Z,1025.3
2018-09-15T09:31:01.765Z,1025.33
2018-09-15T09:32:01.767Z,1025.29
2018-09-15T09:33:01.674Z,1025.34
2018-09-15T09:34:01.624Z,1025.31
2018-09-15T09:35:01.732Z,1025.34
2018-09-15T09:36:01.735Z,1025.3
2018-09-15T09:37:01.792Z,1025.31
2018-09-15T09:38:01.810Z,1025.3
2018-09-15T09:39:01.877Z,1025.31
2018-09-15T09:40:02.031Z,1025.3
2018-09-15T09:41:01.849Z,1025.33
2018-09-15T09:42:01.841Z,1025.3
2018-09-15T09:43:01.862Z,1025.29
2018-09-15T09:44:01.664Z,1025.3
2018-09-15T09:45:01.814Z,1025.29
2018-09-15T09:46:02.270Z,1025.3
2018-09-15T09:47:01.870Z,1025.36
2018-09-15T09:48:02.425Z,1025.36
2018-09-15T09:49:01.744Z,1025.31
2018-09-15T09:50:01.784Z,1025.34
2018-09-15T09:51:02.149Z,1025.33
2018-09-15T09:52:01.703Z,1025.38
2018-09-15T09:53:01.754Z,1025.37
2018-09-15T09:54:01.764Z,1025.34
2018-09-15T09:55:01.871Z,1025.37
2018-09-15T09:56:01.882Z,1025.32
2018-09-15T09:57:01.789Z,1025.34
2018-09-15T09:58:01.763Z,1025.35
2018-09-15T09:59:01.825Z,1025.36
2018-09-15T10:00:01.795Z,1025.35
2018-09-15T10:01:02.019Z,1025.36
2018-09-15T10:02:01.784Z,1025.35
2018-09-15T10:03:01.773Z,1025.38
2018-09-15T10:04:01.965Z,1025.34
2018-09-15T10:05:01.787Z,1025.35
2018-09-15T10:06:01.786Z,1025.33
2018-09-15T10:07:02.002Z,1025.33
2018-09-15T10:08:01.898Z,1025.29
2018-09-15T10:09:01.994Z,1025.29
2018-09-15T10:10:01.774Z,1025.26
2018-09-15T10:11:01.846Z,1025.25
2018-09-15T10:12:01.837Z,1025.25
2018-09-15T10:13:01.951Z,1025.25
2018-09-15T10:14:01.836Z,1025.2
2018-09-15T10:15:01.879Z,1025.2
2018-09-15T10:16:02.151Z,1025.21
2018-09-15T10:17:02.074Z,1025.21
2018-09-15T10:18:01.941Z,1025.21
2018-09-15T10:19:01.945Z,1025.23
2018-09-15T10:20:01.895Z,1025.25
2018-09-15T10:21:01.761Z,1025.24
2018-09-15T10:22:01.746Z,1025.18
2018-09-15T10:23:02.512Z,1025.18
2018-09-15T10:24:01.678Z,1025.18
2018-09-15T10:25:04.021Z,1025.18
2018-09-15T10:26:01.825Z,1025.17
2018-09-15T10:27:02.505Z,1025.18
2018-09-15T10:28:01.738Z,1025.09
2018-09-15T10:29:01.892Z,1025.11
2018-09-15T10:30:01.765Z,1025.11
2018-09-15T10:31:01.720Z,1025.07
2018-09-15T10:32:02.128Z,1025.06
2018-09-15T10:33:01.604Z,1025.05
2018-09-15T10:34:01.693Z,1025.08
2018-09-15T10:35:01.636Z,1025.08
2018-09-15T10:36:01.900Z,1025.07
2018-09-15T10:37:01.832Z,1025.06
2018-09-15T10:38:02.174Z,1025.11
2018-09-15T10:39:01.758Z,1025.04
2018-09-15T10:40:01.872Z,1025.07
2018-09-15T10:41:01.893Z,1025.01
2018-09-15T10:42:01.937Z,1025.04
2018-09-15T10:43:01.948Z,1025.08
2018-09-15T10:44:02.030Z,1025.05
2018-09-15T10:45:01.765Z,1025.01
2018-09-15T10:46:02.180Z,1025.04
2018-09-15T10:47:01.648Z,1025.05
2018-09-15T10:48:01.878Z,1025.07
2018-09-15T10:49:01.774Z,1025.12
2018-09-15T10:50:01.744Z,1025.03
2018-09-15T10:51:01.801Z,1025.01
2018-09-15T10:52:01.846Z,1025.1
2018-09-15T10:53:01.726Z,1025.09
2018-09-15T10:54:01.886Z,1025.13
2018-09-15T10:55:01.788Z,1025.16
2018-09-15T10:56:01.654Z,1025.16
2018-09-15T10:57:01.727Z,1025.15
2018-09-15T10:58:01.735Z,1025.11
2018-09-15T10:59:01.681Z,1025.07
2018-09-15T11:00:01.778Z,1025.11
2018-09-15T11:01:01.812Z,1025.07
2018-09-15T11:02:01.993Z,1025.01
2018-09-15T11:03:01.843Z,1025.01
2018-09-15T11:04:01.751Z,1025.03
2018-09-15T11:05:01.737Z,1025.01
2018-09-15T11:06:01.913Z,1025
2018-09-15T11:07:02.088Z,1024.98
2018-09-15T11:08:02.076Z,1024.97
2018-09-15T11:09:01.747Z,1025
2018-09-15T11:10:01.728Z,1024.99
2018-09-15T11:11:01.721Z,1025.03
2018-09-15T11:12:01.946Z,1025
2018-09-15T11:13:01.750Z,1025.01
2018-09-15T11:14:01.711Z,1025.01
2018-09-15T11:15:01.863Z,1025.05
2018-09-15T11:16:01.968Z,1025.02
2018-09-15T11:17:03.189Z,1025.02
2018-09-15T11:18:01.550Z,1025
2018-09-15T11:19:01.844Z,1025.03
2018-09-15T11:20:01.911Z,1025.05
2018-09-15T11:21:02.074Z,1025.05
2018-09-15T11:22:01.628Z,1025.07
2018-09-15T11:23:01.877Z,1025.04
2018-09-15T11:24:01.744Z,1025.08
2018-09-15T11:25:01.891Z,1025.05
2018-09-15T11:26:02.056Z,1025.05
2018-09-15T11:27:01.805Z,1025.1
2018-09-15T11:28:03.024Z,1025.06
2018-09-15T11:29:02.012Z,1025.08
2018-09-15T11:30:01.784Z,1025.11
2018-09-15T11:31:01.993Z,1025.06
2018-09-15T11:32:01.556Z,1025.12
2018-09-15T11:33:01.641Z,1025.1
2018-09-15T11:34:02.126Z,1025.06
2018-09-15T11:35:01.822Z,1025.11
2018-09-15T11:36:01.692Z,1025.05
2018-09-15T11:37:01.893Z,1025.08
2018-09-15T11:38:01.874Z,1025.09
2018-09-15T11:39:01.892Z,1025.06
2018-09-15T11:40:01.907Z,1025.02
2018-09-15T11:41:02.162Z,1025.05
2018-09-15T11:42:01.865Z,1025.01
2018-09-15T11:43:01.745Z,1025.05
2018-09-15T11:44:01.696Z,1025.04
2018-09-15T11:45:01.821Z,1025.04
2018-09-15T11:46:02.082Z,1025.04
2018-09-15T11:47:01.797Z,1025.01
2018-09-15T11:48:02.280Z,1025.02
2018-09-15T11:49:02.012Z,1025
2018-09-15T11:50:01.544Z,1025.01
2018-09-15T11:51:01.995Z,1024.97
2018-09-15T11:52:01.806Z,1024.97
2018-09-15T11:53:01.634Z,1024.99
2018-09-15T11:54:01.669Z,1024.95
2018-09-15T11:55:01.635Z,1024.97
2018-09-15T11:56:02.195Z,1024.96
2018-09-15T11:57:01.660Z,1024.96
2018-09-15T11:58:01.692Z,1024.93
2018-09-15T11:59:01.770Z,1025.01
2018-09-15T12:00:02.175Z,1025.04
2018-09-15T12:01:01.854Z,1025.02
2018-09-15T12:02:02.306Z,1025.03
2018-09-15T12:03:01.833Z,1025.02
2018-09-15T12:04:01.732Z,1024.99
2018-09-15T12:05:01.748Z,1025.02
2018-09-15T12:06:01.665Z,1025.01
2018-09-15T12:07:01.793Z,1024.99
2018-09-15T12:08:01.649Z,1024.96